Latest Weather Observations for Campbelltown

IDN60801

Issued at 5:32 pm EST Wednesday 26 April 2017 (issued every 30 minutes, with the page automatically refreshed every 10 minutes)

About weather observations | Map of weather stations | Latest weather observations for NSW | Other Formats
Station Details ID: 068257 Name: CAMPBELLTOWN (MOUNT ANNAN) Lat: -34.06 Lon: 150.77 Height: 112.0 m
Data from the previous 72 hours. | See also: Recent months at Campbelltown
Date/Time
EST
Temp
°C
App
Temp
°C
Dew
Point
°C
Rel
Hum
%
Delta-T
°C
Wind Press
QNH
hPa
Press
MSL
hPa
Rain since
9am
mm
Dir  Spd
km/h
Gust
km/h
Spd
kts
Gust
kts
26/05:30pm 14.2 10.7 5.3 55 4.2 W 13 26 7 14 - - 0.6
26/05:00pm 13.3 12.1 8.0 70 2.6 NW 4 9 2 5 - - 0.6
26/04:30pm 14.6 14.4 9.0 69 2.9 CALM 0 4 0 2 - - 0.6
26/04:00pm 13.7 11.6 8.3 70 2.7 NW 9 15 5 8 - - 0.6
26/03:30pm 13.4 11.3 8.3 71 2.6 WNW 9 17 5 9 - - 0.6
26/03:00pm 12.8 11.2 8.9 77 2.0 WSW 7 13 4 7 - - 0.6
26/02:30pm 13.6 9.8 7.6 67 3.0 WSW 17 28 9 15 - - 0.2
26/02:10pm 16.0 9.8 4.1 45 5.6 WSW 26 50 14 27 - - 0.2
26/02:09pm 16.5 10.6 3.9 43 5.9 WSW 24 50 13 27 - - 0.2
26/02:00pm 21.9 18.9 5.8 35 8.1 NW 11 22 6 12 - - 0.2
26/01:30pm 20.5 17.2 4.5 35 7.8 WNW 11 22 6 12 - - 0.2
26/01:00pm 21.3 18.9 6.8 39 7.4 SW 9 24 5 13 - - 0.2
26/12:30pm 21.5 17.4 4.6 33 8.3 WNW 15 24 8 13 - - 0.2
26/12:00pm 21.4 17.1 5.3 35 8.0 NNW 17 32 9 17 - - 0.2
26/11:30am 22.6 19.4 5.1 32 8.8 WNW 11 20 6 11 - - 0.2
26/11:00am 21.9 18.5 5.8 35 8.1 WNW 13 28 7 15 - - 0.2
26/10:30am 21.6 17.7 7.1 39 7.5 NNW 17 28 9 15 - - 0.2
26/10:00am 20.8 19.0 9.4 48 6.1 WNW 9 20 5 11 - - 0.2
26/09:30am 20.4 19.7 11.3 56 5.0 N 6 11 3 6 - - 0.0
26/09:00am 18.9 17.9 12.2 65 3.7 NNW 9 17 5 9 - - 0.0
26/08:30am 17.6 17.5 13.9 79 2.1 N 7 9 4 5 - - 0.0
26/08:00am 14.5 15.9 14.3 99 0.1 CALM 0 4 0 2 - - 0.0
26/07:30am 12.1 12.7 11.9 99 0.1 CALM 0 0 0 0 - - 0.0
26/07:00am 10.2 9.5 10.1 99 0.1 NW 4 7 2 4 - - 0.0
26/06:30am 10.3 10.4 10.1 99 0.1 CALM 0 0 0 0 - - 0.0
26/06:00am 10.2 10.3 10.1 99 0.1 CALM 0 0 0 0 - - 0.0
26/05:30am 10.7 10.9 10.5 99 0.1 CALM 0 0 0 0 - - 0.0
26/05:00am 10.8 11.0 10.6 99 0.1 CALM 0 6 0 3 - - 0.0
26/04:30am 11.4 11.8 11.2 99 0.1 CALM 0 0 0 0 - - 0.0
26/04:00am 12.0 12.6 11.8 99 0.1 CALM 0 0 0 0 - - 0.0
26/03:30am 11.8 11.9 11.6 99 0.1 NW 2 6 1 3 - - 0.0
26/03:00am 12.7 13.5 12.5 99 0.1 CALM 0 0 0 0 - - 0.0
26/02:30am 13.0 13.9 12.8 99 0.1 CALM 0 0 0 0 - - 0.0
26/02:00am 13.1 14.0 12.8 98 0.2 CALM 0 0 0 0 - - 0.0
26/01:30am 14.0 15.2 13.7 98 0.2 CALM 0 0 0 0 - - 0.0
26/01:00am 14.0 15.1 13.5 97 0.3 CALM 0 0 0 0 - - 0.0
26/12:30am 14.8 16.2 14.3 97 0.3 CALM 0 0 0 0 - - 0.0
26/12:00am 14.8 16.1 14.2 96 0.3 CALM 0 0 0 0 - - 0.0
 
Date/Time
EST
Temp
°C
App
Temp
°C
Dew
Point
°C
Rel
Hum
%
Delta-T
°C
Wind Press
QNH
hPa
Press
MSL
hPa
Rain since
9am
mm
Dir  Spd
km/h
Gust
km/h
Spd
kts
Gust
kts
25/11:30pm 15.2 16.6 14.4 95 0.5 CALM 0 0 0 0 - - 0.0
25/11:00pm 15.7 17.1 14.4 92 0.7 CALM 0 0 0 0 - - 0.0
25/10:30pm 16.4 17.8 14.4 88 1.1 CALM 0 0 0 0 - - 0.0
25/10:00pm 17.5 19.2 15.3 87 1.3 CALM 0 0 0 0 - - 0.0
25/09:30pm 17.7 19.4 15.1 85 1.5 CALM 0 0 0 0 - - 0.0
25/09:00pm 18.7 20.4 15.2 80 2.1 CALM 0 0 0 0 - - 0.0
25/08:30pm 19.3 19.0 15.4 78 2.3 NNW 11 15 6 8 - - 0.0
25/08:00pm 19.4 19.9 15.5 78 2.3 N 7 9 4 5 - - 0.0
25/07:30pm 19.9 20.3 15.3 75 2.7 NNW 7 11 4 6 - - 0.0
25/07:00pm 19.9 21.2 15.1 74 2.8 N 2 6 1 3 - - 0.0
25/06:30pm 20.0 20.1 15.4 75 2.7 N 9 13 5 7 - - 0.0
25/06:00pm 21.1 20.4 14.3 65 4.0 N 11 17 6 9 - - 0.0
25/05:30pm 21.7 20.2 13.1 58 4.9 NNW 13 19 7 10 - - 0.0
25/05:00pm 21.7 20.8 13.6 60 4.7 NNW 11 17 6 9 - - 0.0
25/04:30pm 22.2 21.2 13.3 57 5.1 NNW 11 22 6 12 - - 0.0
25/04:00pm 22.2 21.5 13.3 57 5.1 NNW 9 17 5 9 - - 0.0
25/03:30pm 22.7 22.1 13.5 56 5.4 NNW 9 17 5 9 - - 0.0
25/03:00pm 22.6 21.2 13.4 56 5.3 NNW 13 26 7 14 - - 0.0
25/02:30pm 21.4 22.0 15.9 71 3.3 NNW 7 19 4 10 - - 0.0
25/02:00pm 20.9 22.4 16.7 77 2.6 WNW 4 9 2 5 - - 0.0
25/01:30pm 20.2 19.9 16.4 79 2.3 SW 13 15 7 8 - - 0.0
25/01:00pm 23.2 23.1 15.0 60 4.9 NNW 9 13 5 7 - - 0.0
25/12:30pm 22.8 23.3 15.6 64 4.3 NNW 7 13 4 7 - - 0.0
25/12:00pm 21.9 23.1 16.0 69 3.6 N 4 7 2 4 - - 0.0
25/11:30am 21.5 22.0 15.6 69 3.5 N 7 11 4 6 - - 0.0
25/11:00am 21.4 21.6 15.7 70 3.4 N 9 17 5 9 - - 0.0
25/10:30am 20.6 20.2 15.2 71 3.2 N 11 17 6 9 - - 0.0
25/10:00am 19.8 20.1 16.1 79 2.2 NNE 9 13 5 7 - - 0.0
25/09:30am 18.1 18.9 16.4 90 1.0 N 7 9 4 5 - - 0.0
25/09:00am 17.7 18.8 16.7 94 0.6 N 6 11 3 6 - - 0.2
25/08:30am 16.7 18.9 16.5 99 0.1 CALM 0 0 0 0 - - 0.2
25/08:00am 16.1 18.1 15.9 99 0.1 CALM 0 0 0 0 - - 0.2
25/07:30am 15.5 17.2 15.3 99 0.1 CALM 0 0 0 0 - - 0.2
25/07:00am 15.2 16.8 15.0 99 0.1 CALM 0 0 0 0 - - 0.2
25/06:30am 15.1 16.7 14.9 99 0.1 CALM 0 0 0 0 - - 0.2
25/06:00am 15.1 16.7 14.9 99 0.1 CALM 0 0 0 0 - - 0.2
25/05:30am 15.2 16.8 15.0 99 0.1 CALM 0 0 0 0 - - 0.2
25/05:00am 15.6 17.4 15.4 99 0.1 CALM 0 0 0 0 - - 0.2
25/04:30am 15.5 17.2 15.3 99 0.1 CALM 0 0 0 0 - - 0.2
25/04:00am 15.5 17.2 15.3 99 0.1 CALM 0 0 0 0 - - 0.2
25/03:30am 15.4 17.1 15.2 99 0.1 CALM 0 0 0 0 - - 0.2
25/03:00am 15.3 17.0 15.1 99 0.1 CALM 0 0 0 0 - - 0.2
25/02:30am 15.3 17.0 15.1 99 0.1 CALM 0 0 0 0 - - 0.2
25/02:00am 15.3 16.9 15.0 98 0.2 CALM 0 0 0 0 - - 0.2
25/01:30am 15.3 16.9 14.8 97 0.3 CALM 0 0 0 0 - - 0.2
25/01:00am 15.5 17.1 14.9 96 0.3 CALM 0 0 0 0 - - 0.2
25/12:30am 15.8 17.4 15.0 95 0.5 CALM 0 0 0 0 - - 0.2
25/12:00am 16.3 18.0 15.2 93 0.6 CALM 0 0 0 0 - - 0.2
 
Date/Time
EST
Temp
°C
App
Temp
°C
Dew
Point
°C
Rel
Hum
%
Delta-T
°C
Wind Press
QNH
hPa
Press
MSL
hPa
Rain since
9am
mm
Dir  Spd
km/h
Gust
km/h
Spd
kts
Gust
kts
24/11:30pm 16.3 17.9 15.0 92 0.8 CALM 0 0 0 0 - - 0.2
24/11:00pm 16.4 17.9 14.6 89 1.0 CALM 0 0 0 0 - - 0.2
24/10:30pm 16.8 18.3 14.6 87 1.3 CALM 0 0 0 0 - - 0.2
24/10:00pm 17.4 17.9 14.9 85 1.5 NE 6 7 3 4 - - 0.2
24/09:30pm 17.5 17.9 14.8 84 1.6 NE 6 9 3 5 - - 0.2
24/09:00pm 17.3 18.9 14.8 85 1.5 CALM 0 0 0 0 - - 0.2
24/08:30pm 17.9 19.5 14.8 82 1.8 CALM 0 4 0 2 - - 0.2
24/08:00pm 18.1 18.8 14.6 80 2.0 ESE 4 7 2 4 - - 0.2
24/07:30pm 18.4 18.7 14.9 80 2.0 ESE 7 11 4 6 - - 0.2
24/07:00pm 18.6 18.9 15.1 80 2.1 ESE 7 11 4 6 - - 0.2
24/06:30pm 18.7 19.0 15.0 79 2.2 E 7 11 4 6 - - 0.2
24/06:00pm 19.1 19.5 14.8 76 2.5 ENE 6 7 3 4 - - 0.2
24/05:30pm 19.8 20.0 14.6 72 3.0 ENE 7 9 4 5 - - 0.2
24/05:00pm 21.1 21.2 14.5 66 3.9 ENE 7 13 4 7 - - 0.2
24/04:30pm 22.8 22.4 14.1 58 5.1 ENE 9 15 5 8 - - 0.2
24/04:00pm 24.0 23.2 11.7 46 7.0 NNE 7 11 4 6 - - 0.2
24/03:30pm 24.1 22.6 10.7 43 7.5 NNE 9 15 5 8 - - 0.2
24/03:00pm 24.3 23.2 11.9 45 7.1 NNE 9 15 5 8 - - 0.2
24/02:30pm 24.1 23.0 11.8 46 7.0 NNE 9 17 5 9 - - 0.2
24/02:00pm 24.7 23.7 12.3 46 7.1 NNE 9 13 5 7 - - 0.2
24/01:30pm 24.1 23.7 13.0 50 6.4 ENE 7 11 4 6 - - 0.2
24/01:00pm 23.7 22.8 12.7 50 6.3 NNE 9 13 5 7 - - 0.2
24/12:30pm 23.4 23.2 13.6 54 5.7 NNW 7 15 4 8 - - 0.2
24/12:00pm 22.9 22.6 13.4 55 5.5 ENE 7 11 4 6 - - 0.2
24/11:30am 22.5 22.2 13.3 56 5.3 NNW 7 9 4 5 - - 0.2
24/11:00am 22.0 22.5 13.9 60 4.7 NW 4 11 2 6 - - 0.2
24/10:30am 21.2 20.9 13.4 61 4.5 N 7 11 4 6 - - 0.0
24/10:00am 20.1 21.1 14.2 69 3.4 SW 2 7 1 4 - - 0.0
24/09:30am 18.8 19.1 14.5 76 2.5 SW 6 9 3 5 - - 0.0
24/09:00am 17.7 18.0 13.4 76 2.4 SW 4 7 2 4 - - 0.0
24/08:30am 16.1 16.1 13.6 85 1.4 S 6 9 3 5 - - 0.0
24/08:00am 14.9 14.8 13.3 90 0.9 SSW 6 9 3 5 - - 0.0
24/07:30am 13.2 13.0 12.9 98 0.2 SSW 6 9 3 5 - - 0.0
24/07:00am 12.0 11.7 11.4 96 0.3 SSW 4 6 2 3 - - 0.0
24/06:30am 12.4 11.8 11.6 95 0.4 SSW 6 7 3 4 - - 0.0
24/06:00am 13.1 12.6 12.2 94 0.5 SSW 6 11 3 6 - - 0.0
24/05:30am 13.6 12.7 12.7 94 0.5 SSW 9 15 5 8 - - 0.0
24/05:00am 13.1 12.5 12.2 94 0.5 SSW 7 9 4 5 - - 0.0
24/04:30am 13.7 12.9 12.8 94 0.5 S 9 13 5 7 - - 0.0
24/04:00am 13.6 13.1 12.7 94 0.5 S 7 15 4 8 - - 0.0
24/03:30am 14.0 13.3 13.2 95 0.4 S 9 17 5 9 - - 0.0
24/03:00am 13.8 13.1 13.3 97 0.3 SSW 9 11 5 6 - - 0.0
24/02:30am 13.5 14.1 13.0 97 0.3 SSW 2 6 1 3 - - 0.0
24/02:00am 13.8 13.6 13.5 98 0.2 SSW 7 9 4 5 - - 0.0
24/01:30am 13.6 13.3 13.3 98 0.2 SSW 7 13 4 7 - - 0.0
24/01:00am 13.7 14.3 13.2 97 0.3 S 2 7 1 4 - - 0.0
24/12:30am 14.4 14.9 13.9 97 0.3 S 4 9 2 5 - - 0.0
24/12:00am 14.8 15.0 14.6 99 0.1 S 7 13 4 7 - - 0.0
 
Date/Time
EST
Temp
°C
App
Temp
°C
Dew
Point
°C
Rel
Hum
%
Delta-T
°C
Wind Press
QNH
hPa
Press
MSL
hPa
Rain since
9am
mm
Dir  Spd
km/h
Gust
km/h
Spd
kts
Gust
kts
23/11:30pm 15.1 15.6 14.9 99 0.1 S 6 9 3 5 - - 0.0
23/11:00pm 14.1 14.5 13.8 98 0.2 S 4 6 2 3 - - 0.0
23/10:30pm 14.3 15.6 14.0 98 0.2 CALM 0 0 0 0 - - 0.0
23/10:00pm 14.4 15.3 13.9 97 0.3 S 2 7 1 4 - - 0.0
23/09:30pm 14.9 16.3 14.4 97 0.3 CALM 0 0 0 0 - - 0.0
23/09:00pm 15.0 16.4 14.4 96 0.3 CALM 0 0 0 0 - - 0.0
23/08:30pm 14.7 15.8 13.6 93 0.6 CALM 0 0 0 0 - - 0.0
23/08:00pm 15.4 16.8 14.3 93 0.6 CALM 0 0 0 0 - - 0.0
23/07:30pm 16.2 17.7 14.6 90 0.9 CALM 0 0 0 0 - - 0.0
23/07:00pm 17.0 18.2 14.8 87 1.3 S 2 7 1 4 - - 0.0
23/06:30pm 17.8 19.1 15.1 84 1.6 SSW 2 7 1 4 - - 0.0
23/06:00pm 18.5 20.2 15.2 81 1.9 CALM 0 0 0 0 - - 0.0

Other Formats:

Comma delimited format used in spreadsheet applications
http://www.bom.gov.au/fwo/IDN60801/IDN60801.94757.axf

JavaScript Object Notation format (JSON) in row-major order
http://www.bom.gov.au/fwo/IDN60801/IDN60801.94757.json